createdAt,value
2023-03-30T00:04:14.412Z,98256.31
2023-03-30T00:09:18.008Z,98258.13
2023-03-30T00:14:23.607Z,98264.88
2023-03-30T00:19:27.100Z,98270.91
2023-03-30T00:24:30.524Z,98267.50
2023-03-30T00:29:35.517Z,98266.59
2023-03-30T00:34:39.328Z,98266.75
2023-03-30T00:39:43.017Z,98261.44
2023-03-30T00:45:20.470Z,98265.69
2023-03-30T00:50:27.622Z,98263.19
2023-03-30T00:55:34.057Z,98263.28
2023-03-30T01:00:40.622Z,98264.09
2023-03-30T01:05:46.312Z,98269.22
2023-03-30T01:10:49.888Z,98277.94
2023-03-30T01:16:08.122Z,98277.94
2023-03-30T01:21:56.503Z,98279.69
2023-03-30T01:27:03.750Z,98278.94
2023-03-30T01:32:55.856Z,98280.63
2023-03-30T01:38:29.854Z,98285.75
2023-03-30T01:43:40.719Z,98286.56
2023-03-30T01:48:50.355Z,98295.22
2023-03-30T01:53:59.405Z,98307.53
2023-03-30T01:59:12.312Z,98305.13
2023-03-30T02:04:15.964Z,98309.47
2023-03-30T02:09:23.908Z,98318.09
2023-03-30T02:14:32.952Z,98325.94
2023-03-30T02:19:58.226Z,98330.25
2023-03-30T02:25:02.873Z,98332.91
2023-03-30T02:30:10.167Z,98344.16
2023-03-30T02:35:38.529Z,98344.13
2023-03-30T02:40:54.187Z,98341.59
2023-03-30T02:46:15.090Z,98339.91
2023-03-30T02:51:40.577Z,98344.28
2023-03-30T02:56:47.098Z,98339.94
2023-03-30T03:01:58.301Z,98344.28
2023-03-30T03:07:02.790Z,98344.22
2023-03-30T03:12:07.203Z,98347.69
2023-03-30T03:17:13.865Z,98355.47
2023-03-30T03:22:17.951Z,98359.78
2023-03-30T03:27:21.633Z,98353.78
2023-03-30T03:32:26.532Z,98344.28
2023-03-30T03:37:29.697Z,98348.56
2023-03-30T03:42:33.137Z,98357.25
2023-03-30T03:47:38.023Z,98361.56
2023-03-30T03:52:41.432Z,98371.84
2023-03-30T03:57:45.229Z,98379.66
2023-03-30T04:02:50.152Z,98369.28
2023-03-30T04:07:56.947Z,98376.16
2023-03-30T04:13:00.542Z,98385.63
2023-03-30T04:18:06.765Z,98386.50
2023-03-30T04:23:16.523Z,98402.88
2023-03-30T04:28:24.762Z,98395.16
2023-03-30T04:33:29.656Z,98389.91
2023-03-30T04:38:32.993Z,98399.41
2023-03-30T04:43:36.412Z,98414.94
2023-03-30T04:48:41.557Z,98420.97
2023-03-30T04:53:45.112Z,98418.34
2023-03-30T04:58:48.950Z,98413.16
2023-03-30T05:03:54.308Z,98407.94
2023-03-30T05:08:58.182Z,98414.94
2023-03-30T05:14:01.620Z,98414.06
2023-03-30T05:19:06.613Z,98416.59
2023-03-30T05:24:09.848Z,98409.66
2023-03-30T05:29:13.360Z,98411.41
2023-03-30T05:34:18.353Z,98414.81
2023-03-30T05:39:23.429Z,98418.22
2023-03-30T05:44:26.942Z,98421.63
2023-03-30T05:49:32.228Z,98428.53
2023-03-30T05:54:35.734Z,98425.97
2023-03-30T05:59:39.478Z,98430.88
2023-03-30T06:04:44.399Z,98440.06
2023-03-30T06:09:48.243Z,98436.31
2023-03-30T06:14:51.708Z,98438.84
2023-03-30T06:19:56.733Z,98436.06
2023-03-30T06:25:00.536Z,98435.31
2023-03-30T06:30:04.995Z,98441.47
2023-03-30T06:35:10.469Z,98444.63
2023-03-30T06:40:14.948Z,98443.38
2023-03-30T06:45:18.577Z,98449.59
2023-03-30T06:50:23.725Z,98442.94
2023-03-30T06:55:27.436Z,98447.78
2023-03-30T07:00:31.368Z,98443.69
2023-03-30T07:05:36.266Z,98450.22
2023-03-30T07:10:39.541Z,98449.06
2023-03-30T07:15:42.956Z,98435.69
2023-03-30T07:20:48.244Z,98455.53
2023-03-30T07:25:51.865Z,98458.19
2023-03-30T07:30:55.439Z,98456.56
2023-03-30T07:36:00.371Z,98468.66
2023-03-30T07:41:07.687Z,98466.94
2023-03-30T07:46:13.116Z,98472.44
2023-03-30T07:51:18.839Z,98476.19
2023-03-30T07:56:22.426Z,98480.75
2023-03-30T08:01:26.785Z,98482.63
2023-03-30T08:06:31.817Z,98485.88
2023-03-30T08:11:36.218Z,98483.97
2023-03-30T08:16:39.761Z,98487.47
2023-03-30T08:21:44.858Z,98503.84
2023-03-30T08:26:48.334Z,98516.03
2023-03-30T08:31:52.929Z,98514.41
2023-03-30T08:36:58.311Z,98517.00
2023-03-30T08:42:12.628Z,98523.06
2023-03-30T08:47:23.429Z,98530.09
2023-03-30T08:52:28.386Z,98519.75
2023-03-30T08:57:39.423Z,98535.28
2023-03-30T09:02:47.510Z,98522.38
2023-03-30T09:08:02.312Z,98536.13
2023-03-30T09:13:07.724Z,98539.47
2023-03-30T09:18:17.124Z,98513.56
2023-03-30T09:23:21.945Z,98533.41
2023-03-30T09:28:28.577Z,98548.06
2023-03-30T09:33:43.466Z,98550.72
2023-03-30T09:38:48.805Z,98544.66
2023-03-30T09:43:53.721Z,98550.75
2023-03-30T09:49:12.830Z,98560.31
2023-03-30T09:54:17.733Z,98568.13
2023-03-30T09:59:23.474Z,98562.09
2023-03-30T10:04:27.053Z,98565.53
2023-03-30T10:09:31.929Z,98575.88
2023-03-30T10:14:36.098Z,98574.16
2023-03-30T10:19:48.178Z,98581.94
2023-03-30T10:24:57.429Z,98573.34
2023-03-30T10:30:10.558Z,98571.63
2023-03-30T10:35:20.663Z,98586.28
2023-03-30T10:40:28.966Z,98572.50
2023-03-30T10:45:38.967Z,98600.91
2023-03-30T10:50:51.177Z,98595.75
2023-03-30T10:56:03.136Z,98603.47
2023-03-30T11:01:16.626Z,98602.63
2023-03-30T11:06:25.249Z,98596.63
2023-03-30T11:11:36.747Z,98594.88
2023-03-30T11:16:47.829Z,98607.78
2023-03-30T11:21:59.811Z,98613.81
2023-03-30T11:27:12.140Z,98611.22
2023-03-30T11:32:26.105Z,98609.47
2023-03-30T11:37:35.166Z,98587.94
2023-03-30T11:42:40.408Z,98582.81
2023-03-30T11:47:59.632Z,98590.56
2023-03-30T11:53:14.610Z,98592.25
2023-03-30T11:58:28.603Z,98604.22
2023-03-30T12:03:40.312Z,98611.94
2023-03-30T12:09:01.206Z,98621.41
2023-03-30T12:14:16.169Z,98607.59
2023-03-30T12:19:26.224Z,98596.41
2023-03-30T12:24:36.818Z,98610.19
2023-03-30T12:30:02.296Z,98604.19
2023-03-30T12:35:40.273Z,98617.88
2023-03-30T12:40:47.688Z,98626.38
2023-03-30T12:46:02.863Z,98610.94
2023-03-30T12:51:15.823Z,98621.13
2023-03-30T12:56:31.542Z,98617.56
2023-03-30T13:01:47.287Z,98619.28
2023-03-30T13:06:53.888Z,98619.22
2023-03-30T13:12:26.457Z,98614.91
2023-03-30T13:17:51.007Z,98604.53
2023-03-30T13:23:01.692Z,98612.28
2023-03-30T13:28:49.209Z,98601.97
2023-03-30T13:34:04.097Z,98619.81
2023-03-30T13:39:19.102Z,98622.44
2023-03-30T13:44:40.416Z,98623.28
2023-03-30T13:49:54.105Z,98617.03
2023-03-30T13:54:58.126Z,98621.34
2023-03-30T14:00:08.262Z,98621.34
2023-03-30T14:05:16.569Z,98614.34
2023-03-30T14:10:22.333Z,98603.94
2023-03-30T14:15:30.162Z,98626.31
2023-03-30T14:20:47.776Z,98627.09
2023-03-30T14:25:55.639Z,98621.84
2023-03-30T14:31:03.282Z,98621.06
2023-03-30T14:36:12.045Z,98627.13
2023-03-30T14:41:19.762Z,98620.25
2023-03-30T14:46:26.203Z,98610.72
2023-03-30T14:51:40.594Z,98620.22
2023-03-30T14:56:45.482Z,98616.69
2023-03-30T15:01:49.264Z,98615.78
2023-03-30T15:06:54.869Z,98605.34
2023-03-30T15:12:01.014Z,98618.16
2023-03-30T15:17:11.853Z,98624.09
2023-03-30T15:22:25.889Z,98626.59
2023-03-30T15:27:29.698Z,98627.16
2023-03-30T15:32:36.405Z,98634.06
2023-03-30T15:37:54.542Z,98610.72
2023-03-30T15:43:14.753Z,98646.00
2023-03-30T15:48:22.341Z,98654.47
2023-03-30T15:53:37.204Z,98650.28
2023-03-30T15:58:41.653Z,98641.53
2023-03-30T16:03:54.380Z,98651.81
2023-03-30T16:08:59.551Z,98668.13
2023-03-30T16:14:04.638Z,98660.34
2023-03-30T16:19:12.111Z,98659.56
2023-03-30T16:24:17.004Z,98669.84
2023-03-30T16:29:21.575Z,98663.91
2023-03-30T16:34:25.538Z,98660.41
2023-03-30T16:39:31.429Z,98676.75
2023-03-30T16:44:36.492Z,98664.59
2023-03-30T16:49:40.043Z,98680.09
2023-03-30T16:54:45.062Z,98682.75
2023-03-30T16:59:48.615Z,98686.03
2023-03-30T17:04:52.313Z,98680.75
2023-03-30T17:09:58.012Z,98684.13
2023-03-30T17:15:01.452Z,98667.84
2023-03-30T17:20:22.632Z,98670.63
2023-03-30T17:25:27.563Z,98671.38
2023-03-30T17:30:32.391Z,98684.44
2023-03-30T17:35:35.970Z,98680.78
2023-03-30T17:40:41.016Z,98667.06
2023-03-30T17:45:46.566Z,98660.97
2023-03-30T17:50:51.406Z,98660.91
2023-03-30T17:55:56.412Z,98659.16
2023-03-30T18:01:01.159Z,98649.88
2023-03-30T18:06:04.670Z,98642.13
2023-03-30T18:11:09.754Z,98650.72
2023-03-30T18:16:14.105Z,98646.38
2023-03-30T18:21:17.722Z,98656.81
2023-03-30T18:26:22.743Z,98651.56
2023-03-30T18:31:26.460Z,98661.84
2023-03-30T18:36:29.950Z,98638.44
2023-03-30T18:41:34.818Z,98648.84
2023-03-30T18:46:38.099Z,98652.25
2023-03-30T18:51:41.517Z,98654.69
2023-03-30T18:56:47.940Z,98654.75
2023-03-30T19:01:51.474Z,98649.63
2023-03-30T19:06:55.217Z,98646.19
2023-03-30T19:12:00.177Z,98645.34
2023-03-30T19:17:03.908Z,98646.06
2023-03-30T19:22:07.798Z,98646.78
2023-03-30T19:27:12.782Z,98638.25
2023-03-30T19:32:17.223Z,98637.28
2023-03-30T19:37:20.840Z,98635.50
2023-03-30T19:42:26.811Z,98620.09
2023-03-30T19:47:32.042Z,98623.50
2023-03-30T19:52:35.614Z,98622.53
2023-03-30T19:57:40.611Z,98607.19
2023-03-30T20:02:46.234Z,98607.91
2023-03-30T20:07:50.821Z,98608.84
2023-03-30T20:12:56.048Z,98591.75
2023-03-30T20:17:59.675Z,98592.50
2023-03-30T20:23:04.165Z,98588.22
2023-03-30T20:28:09.144Z,98581.41
2023-03-30T20:33:12.442Z,98573.75
2023-03-30T20:38:15.866Z,98569.38
2023-03-30T20:43:20.741Z,98562.44
2023-03-30T20:48:27.360Z,98563.38
2023-03-30T20:53:31.668Z,98563.31
2023-03-30T20:58:37.576Z,98534.84
2023-03-30T21:03:44.868Z,98561.44
2023-03-30T21:08:48.901Z,98555.41
2023-03-30T21:13:54.715Z,98550.47
2023-03-30T21:18:58.156Z,98546.91
2023-03-30T21:24:02.372Z,98534.81
2023-03-30T21:29:07.236Z,98539.84
2023-03-30T21:34:10.919Z,98545.09
2023-03-30T21:39:14.396Z,98536.38
2023-03-30T21:44:19.844Z,98529.56
2023-03-30T21:49:23.321Z,98537.19
2023-03-30T21:54:27.164Z,98533.81
2023-03-30T21:59:32.236Z,98532.94
2023-03-30T22:04:35.921Z,98528.59
2023-03-30T22:09:39.445Z,98513.78
2023-03-30T22:14:44.319Z,98528.59
2023-03-30T22:19:51.133Z,98536.06
2023-03-30T22:24:54.671Z,98537.75
2023-03-30T22:29:59.528Z,98538.59
2023-03-30T22:35:02.712Z,98538.13
2023-03-30T22:40:07.754Z,98528.50
2023-03-30T22:45:13.313Z,98529.53
2023-03-30T22:50:17.652Z,98522.38
2023-03-30T22:55:21.678Z,98522.09
2023-03-30T23:00:26.838Z,98515.84
2023-03-30T23:05:33.592Z,98519.72
2023-03-30T23:10:37.755Z,98521.09
2023-03-30T23:15:42.870Z,98519.91
2023-03-30T23:20:46.815Z,98524.88
2023-03-30T23:25:51.454Z,98521.31
2023-03-30T23:30:57.924Z,98518.47
2023-03-30T23:36:01.486Z,98512.16
2023-03-30T23:41:05.013Z,98519.66
2023-03-30T23:46:10.720Z,98521.97
2023-03-30T23:51:14.452Z,98511.50
2023-03-30T23:56:18.209Z,98513.09
